createdAt,value
2019-02-15T00:08:23.065Z,0.64
2019-02-15T00:19:11.045Z,0.46
2019-02-15T00:29:50.858Z,0.52
2019-02-15T00:40:46.263Z,0.29
2019-02-15T00:51:47.109Z,0.45
2019-02-15T01:02:49.026Z,0.13
2019-02-15T01:13:46.534Z,0.25
2019-02-15T01:24:42.699Z,0.28
2019-02-15T01:35:42.037Z,0.14
2019-02-15T01:46:42.277Z,0.09
2019-02-15T01:57:45.055Z,-0.02
2019-02-15T02:08:49.102Z,-0.23
2019-02-15T02:19:46.888Z,-0.19
2019-02-15T02:30:48.330Z,-0.28
2019-02-15T02:41:50.178Z,-0.25
2019-02-15T02:52:50.808Z,-0.22
2019-02-15T03:03:54.951Z,-0.28
2019-02-15T03:14:39.747Z,-0.33
2019-02-15T03:25:16.480Z,-0.33
2019-02-15T03:35:52.056Z,-0.32
2019-02-15T03:46:45.618Z,-0.37
2019-02-15T03:57:42.698Z,-0.47
2019-02-15T04:08:45.610Z,-0.64
2019-02-15T04:19:48.925Z,-0.44
2019-02-15T04:30:53.116Z,-0.59
2019-02-15T04:41:50.328Z,-0.59
2019-02-15T04:52:47.237Z,-0.61
2019-02-15T05:03:45.293Z,-0.53
2019-02-15T05:14:41.879Z,-0.54
2019-02-15T05:25:38.422Z,-0.43
2019-02-15T05:36:41.288Z,-0.44
2019-02-15T05:47:35.746Z,-0.58
2019-02-15T05:58:38.950Z,-0.54
2019-02-15T06:09:39.685Z,-0.58
2019-02-15T06:20:41.065Z,-0.68
2019-02-15T06:31:41.260Z,-0.51
2019-02-15T06:42:44.811Z,-0.46
2019-02-15T06:53:28.156Z,-0.22
2019-02-15T07:04:30.408Z,0.04
2019-02-15T07:15:33.773Z,0.27
2019-02-15T07:26:35.618Z,0.52
2019-02-15T07:37:43.825Z,0.94
2019-02-15T07:48:46.037Z,1.25
2019-02-15T07:59:47.924Z,2.03
2019-02-15T08:10:52.298Z,2.78
2019-02-15T08:21:50.478Z,3.54
2019-02-15T08:32:53.368Z,4.55
2019-02-15T08:43:54.139Z,5.14
2019-02-15T08:54:52.345Z,5.81
2019-02-15T09:05:51.123Z,6.11
2019-02-15T09:16:50.496Z,6.63
2019-02-15T09:27:53.911Z,7.63
2019-02-15T09:38:54.950Z,8.37
2019-02-15T09:49:52.279Z,9.28
2019-02-15T10:00:57.013Z,9.80
2019-02-15T10:11:56.426Z,10.23
2019-02-15T10:22:56.453Z,10.29
2019-02-15T10:33:57.040Z,10.67
2019-02-15T10:44:56.336Z,10.87
2019-02-15T10:55:52.043Z,11.35
2019-02-15T11:06:55.978Z,11.49
2019-02-15T11:17:53.816Z,13.41
2019-02-15T11:28:58.460Z,14.56
2019-02-15T11:39:59.712Z,15.12
2019-02-15T11:51:02.949Z,14.32
2019-02-15T12:02:06.738Z,13.53
2019-02-15T12:13:05.988Z,13.78
2019-02-15T12:23:54.698Z,13.00
2019-02-15T12:34:53.999Z,12.63
2019-02-15T12:45:56.576Z,13.76
2019-02-15T12:56:56.739Z,14.10
2019-02-15T13:07:55.415Z,13.24
2019-02-15T13:18:53.172Z,12.97
2019-02-15T13:29:49.248Z,13.40
2019-02-15T13:40:50.230Z,13.83
2019-02-15T13:51:46.694Z,13.84
2019-02-15T14:02:49.604Z,14.65
2019-02-15T14:13:49.062Z,15.18
2019-02-15T14:24:26.952Z,14.49
2019-02-15T14:35:27.336Z,14.72
2019-02-15T14:46:19.960Z,13.14
2019-02-15T14:57:19.601Z,12.36
2019-02-15T15:08:15.214Z,11.90
2019-02-15T15:19:08.098Z,11.41
2019-02-15T15:30:08.491Z,11.20
2019-02-15T15:41:11.379Z,10.77
2019-02-15T15:52:10.149Z,10.31
2019-02-15T16:03:09.170Z,9.25
2019-02-15T16:14:03.462Z,8.14
2019-02-15T16:24:58.959Z,7.11
2019-02-15T16:36:00.269Z,6.42
2019-02-15T16:46:58.837Z,5.93
2019-02-15T16:57:50.624Z,5.75
2019-02-15T17:08:43.231Z,5.57
2019-02-15T17:19:35.235Z,4.98
2019-02-15T17:30:28.955Z,4.85
2019-02-15T17:41:22.795Z,4.47
2019-02-15T17:52:07.404Z,4.08
2019-02-15T18:03:02.757Z,3.56
2019-02-15T18:13:54.429Z,3.17
2019-02-15T18:24:47.639Z,2.85
2019-02-15T18:35:42.625Z,2.88
2019-02-15T18:46:35.641Z,2.84
2019-02-15T18:57:34.507Z,2.55
2019-02-15T19:08:35.380Z,2.49
2019-02-15T19:19:35.092Z,2.37
2019-02-15T19:30:31.586Z,2.05
2019-02-15T19:41:29.887Z,1.95
2019-02-15T19:52:27.011Z,1.55
2019-02-15T20:03:28.392Z,1.47
2019-02-15T20:14:29.296Z,1.38
2019-02-15T20:25:22.314Z,1.29
2019-02-15T20:36:18.555Z,1.20
2019-02-15T20:47:18.297Z,0.93
2019-02-15T20:58:16.596Z,0.87
2019-02-15T21:09:16.255Z,0.86
2019-02-15T21:20:16.716Z,0.87
2019-02-15T21:31:14.115Z,0.66
2019-02-15T21:42:14.177Z,0.46
2019-02-15T21:53:11.026Z,0.49
2019-02-15T22:04:10.398Z,0.45
2019-02-15T22:15:03.186Z,0.28
2019-02-15T22:25:55.607Z,0.24
2019-02-15T22:36:53.781Z,0.18
2019-02-15T22:47:52.584Z,0.09
2019-02-15T22:58:49.716Z,0.04
2019-02-15T23:09:49.503Z,-0.04
2019-02-15T23:20:45.631Z,0.03
2019-02-15T23:31:40.423Z,-0.23
2019-02-15T23:42:40.277Z,-0.07
2019-02-15T23:53:35.582Z,-0.05
